Time;durP1;ratioP1;P1;durP2;ratioP2;P2;SDS_P1;SDS_P2;PMS_P1;PMS_P2;Temp;Humidity;BMP_temperature;BMP_pressure;BME280_temperature;BME280_humidity;BME280_pressure;Samples;Min_cycle;Max_cycle;Signal;HPM_P1;HPM_P2
2023/05/24 00:00:39;;;;;;;;;0.00;0.00;;;;;8.24;73.06;100610.69;5119227;28;8979;-61
2023/05/24 00:03:08;;;;;;;;;5.50;1.50;;;;;8.22;72.98;100609.06;5119088;28;8989;-61
2023/05/24 00:05:39;;;;;;;;;1.00;1.00;;;;;8.19;72.76;100618.03;5119136;28;8852;-61
2023/05/24 00:08:07;;;;;;;;;0.00;0.00;;;;;8.16;72.79;100614.69;5119108;28;8831;-61
2023/05/24 00:10:35;;;;;;;;;1.50;1.00;;;;;8.13;72.76;100613.06;5118697;28;8836;-61
2023/05/24 00:13:03;;;;;;;;;1.00;1.00;;;;;8.08;72.88;100617.81;5118686;28;8875;-61
2023/05/24 00:15:30;;;;;;;;;0.00;0.00;;;;;8.07;72.64;100616.06;5118968;28;8901;-60
2023/05/24 00:17:58;;;;;;;;;1.00;1.00;;;;;8.03;72.96;100611.91;5118738;28;8831;-61
2023/05/24 00:20:26;;;;;;;;;0.00;0.00;;;;;8.00;73.00;100611.22;5118585;28;8816;-60
2023/05/24 00:22:54;;;;;;;;;1.00;0.00;;;;;7.95;73.12;100606.19;5118776;28;8827;-60
2023/05/24 00:25:22;;;;;;;;;0.00;0.00;;;;;7.90;72.90;100608.25;5118608;28;8835;-60
2023/05/24 00:27:50;;;;;;;;;2.50;1.00;;;;;7.86;73.31;100601.44;5118696;28;8827;-61
2023/05/24 00:30:17;;;;;;;;;1.00;1.00;;;;;7.82;73.16;100610.50;5118729;28;8869;-61
2023/05/24 00:32:45;;;;;;;;;1.00;1.00;;;;;7.79;73.04;100591.25;5118407;28;8846;-63
2023/05/24 00:35:13;;;;;;;;;0.75;0.00;;;;;7.76;73.23;100599.41;5118338;28;8878;-60
2023/05/24 00:37:43;;;;;;;;;6.25;3.75;;;;;7.72;73.38;100598.72;5117276;28;8831;-60
2023/05/24 00:40:11;;;;;;;;;1.00;1.00;;;;;7.70;73.55;100599.75;5118206;28;8847;-61
2023/05/24 00:42:40;;;;;;;;;1.00;1.00;;;;;7.67;73.52;100599.06;5117262;28;8836;-60
2023/05/24 00:45:08;;;;;;;;;1.00;1.00;;;;;7.60;73.75;100595.91;5117242;28;9006;-61
2023/05/24 00:47:35;;;;;;;;;1.00;1.00;;;;;7.53;73.61;100591.03;5117635;28;8832;-61
2023/05/24 00:50:04;;;;;;;;;1.00;1.00;;;;;7.47;73.94;100596.69;5117977;28;8928;-60
2023/05/24 00:52:32;;;;;;;;;3.00;3.00;;;;;7.42;74.28;100598.75;5117982;28;8917;-60
2023/05/24 00:55:00;;;;;;;;;2.50;1.00;;;;;7.36;73.99;100588.50;5118043;28;8966;-60
2023/05/24 00:57:27;;;;;;;;;1.00;1.00;;;;;7.30;74.05;100588.84;5117883;28;8843;-60
2023/05/24 00:59:55;;;;;;;;;0.00;0.00;;;;;7.24;74.26;100590.03;5117905;28;8874;-61
2023/05/24 01:02:24;;;;;;;;;0.00;0.00;;;;;7.21;74.20;100589.34;5117857;28;8804;-60
2023/05/24 01:04:51;;;;;;;;;0.20;0.00;;;;;7.19;74.08;100588.59;5117667;28;8847;-61
2023/05/24 01:07:19;;;;;;;;;0.80;0.80;;;;;7.15;74.59;100590.56;5117927;28;8832;-61
2023/05/24 01:09:47;;;;;;;;;0.20;0.00;;;;;7.13;74.23;100596.88;5117770;28;8819;-60
2023/05/24 01:12:14;;;;;;;;;1.00;1.00;;;;;7.09;74.28;100590.88;5117909;28;8831;-61
2023/05/24 01:14:42;;;;;;;;;0.00;0.00;;;;;7.08;74.89;100596.25;5117567;28;8939;-60
2023/05/24 01:17:10;;;;;;;;;0.40;0.40;;;;;7.03;73.95;100585.94;5117657;28;8824;-61
2023/05/24 01:19:42;;;;;;;;;0.00;0.00;;;;;6.99;74.29;100596.78;5117727;28;8843;-61
2023/05/24 01:22:13;;;;;;;;;0.40;0.40;;;;;6.94;74.52;100596.16;5117374;28;8918;-60
2023/05/24 01:24:41;;;;;;;;;0.00;0.00;;;;;6.90;74.97;100599.91;5117381;28;8850;-60
2023/05/24 01:27:09;;;;;;;;;0.60;0.00;;;;;6.87;74.24;100605.38;5117302;28;9569;-59
2023/05/24 01:29:36;;;;;;;;;0.80;0.80;;;;;6.85;74.90;100596.66;5117329;28;8940;-60
2023/05/24 01:32:04;;;;;;;;;0.80;0.80;;;;;6.83;74.71;100593.25;5117481;28;9598;-60
2023/05/24 01:34:32;;;;;;;;;1.80;0.20;;;;;6.79;75.02;100591.69;5117388;28;8948;-61
2023/05/24 01:36:59;;;;;;;;;2.20;2.20;;;;;6.74;74.76;100583.16;5117394;28;8967;-61
2023/05/24 01:39:27;;;;;;;;;1.00;1.00;;;;;6.72;74.75;100575.28;5117279;28;8823;-61
2023/05/24 01:41:55;;;;;;;;;2.60;1.00;;;;;6.67;74.56;100572.03;5117224;28;8826;-61
2023/05/24 01:44:23;;;;;;;;;1.00;1.00;;;;;6.61;75.10;100566.22;5117793;28;9489;-61
2023/05/24 01:46:51;;;;;;;;;1.00;1.00;;;;;6.56;75.18;100565.59;5117050;28;9509;-61
2023/05/24 01:49:19;;;;;;;;;1.00;1.00;;;;;6.53;75.05;100557.84;5116913;28;8851;-61
2023/05/24 01:51:47;;;;;;;;;1.00;1.00;;;;;6.50;75.10;100558.84;5116777;28;8916;-60
2023/05/24 01:54:15;;;;;;;;;0.00;0.00;;;;;6.49;75.11;100558.94;5116863;28;8820;-61
2023/05/24 01:56:42;;;;;;;;;1.00;1.00;;;;;6.49;75.26;100561.56;5117025;28;8811;-61
2023/05/24 01:59:10;;;;;;;;;0.20;0.20;;;;;6.47;74.53;100559.03;5116500;28;8957;-60
2023/05/24 02:01:38;;;;;;;;;0.80;0.80;;;;;6.47;75.05;100550.22;5116722;28;8930;-61
2023/05/24 02:04:06;;;;;;;;;0.00;0.00;;;;;6.48;74.94;100559.88;5117032;28;8852;-61
2023/05/24 02:06:33;;;;;;;;;1.00;1.00;;;;;6.48;74.82;100559.88;5116577;28;8816;-63
2023/05/24 02:09:01;;;;;;;;;1.00;1.00;;;;;6.47;75.00;100552.88;5116570;28;8857;-62
2023/05/24 02:11:29;;;;;;;;;1.00;1.00;;;;;6.46;74.66;100556.47;5116769;28;8856;-61
2023/05/24 02:13:57;;;;;;;;;0.00;0.00;;;;;6.45;75.05;100546.81;5116691;28;8820;-62
2023/05/24 02:16:25;;;;;;;;;1.00;1.00;;;;;6.44;74.99;100547.75;5116941;28;8946;-63
2023/05/24 02:18:53;;;;;;;;;0.00;0.00;;;;;6.44;74.44;100543.31;5116791;28;8837;-61
2023/05/24 02:21:22;;;;;;;;;1.00;0.00;;;;;6.44;74.47;100551.25;5116561;28;8828;-62
2023/05/24 02:23:50;;;;;;;;;1.40;0.00;;;;;6.42;74.90;100554.91;5116369;28;8989;-61
2023/05/24 02:26:18;;;;;;;;;0.00;0.00;;;;;6.39;74.82;100537.44;5116210;28;8958;-62
2023/05/24 02:28:47;;;;;;;;;0.60;0.60;;;;;6.36;74.69;100540.22;5116479;28;8965;-62
2023/05/24 02:31:15;;;;;;;;;1.00;1.00;;;;;6.33;75.12;100539.53;5116268;28;9521;-60
2023/05/24 02:33:42;;;;;;;;;0.00;0.00;;;;;6.29;75.02;100543.28;5116436;28;8832;-61
2023/05/24 02:36:10;;;;;;;;;0.40;0.40;;;;;6.27;75.35;100545.13;5116301;28;8812;-61
2023/05/24 02:38:38;;;;;;;;;1.00;1.00;;;;;6.25;74.85;100541.72;5116495;28;8831;-63
2023/05/24 02:41:07;;;;;;;;;3.00;1.00;;;;;6.24;75.08;100545.31;5116393;28;8827;-60
2023/05/24 02:43:35;;;;;;;;;1.00;1.00;;;;;6.22;74.99;100547.19;5116462;28;8843;-59
2023/05/24 02:46:03;;;;;;;;;0.80;0.80;;;;;6.19;74.63;100532.31;5116437;28;8954;-58
2023/05/24 02:48:31;;;;;;;;;0.80;0.80;;;;;6.18;75.24;100535.03;5116386;28;8828;-60
2023/05/24 02:51:01;;;;;;;;;1.00;1.00;;;;;6.16;75.24;100542.22;5116314;28;8850;-60
2023/05/24 02:53:31;;;;;;;;;0.60;0.00;;;;;6.14;75.30;100544.91;5116373;28;8847;-58
2023/05/24 02:55:58;;;;;;;;;0.00;0.00;;;;;6.12;75.08;100535.34;5116268;28;8842;-58
2023/05/24 02:58:27;;;;;;;;;3.00;1.40;;;;;6.09;75.62;100538.16;5116135;28;8946;-59
2023/05/24 03:00:55;;;;;;;;;1.00;0.80;;;;;6.08;75.11;100545.22;5115615;28;8984;-58
2023/05/24 03:03:23;;;;;;;;;1.00;0.00;;;;;6.06;75.26;100541.81;5115651;28;8848;-58
2023/05/24 03:05:51;;;;;;;;;1.00;1.00;;;;;6.05;75.15;100544.53;5116213;28;8824;-57
2023/05/24 03:08:19;;;;;;;;;0.80;0.00;;;;;6.03;75.12;100549.06;5116333;28;8812;-60
2023/05/24 03:10:46;;;;;;;;;0.80;0.40;;;;;5.99;75.34;100539.59;5116289;28;8843;-60
2023/05/24 03:13:14;;;;;;;;;2.20;1.00;;;;;5.97;75.19;100552.00;5119875;28;8955;-58
2023/05/24 03:15:42;;;;;;;;;0.20;0.20;;;;;5.93;75.00;100540.72;5119695;28;8962;-58
2023/05/24 03:18:10;;;;;;;;;0.40;0.00;;;;;5.92;75.41;100543.47;5119962;28;8970;-58
2023/05/24 03:20:38;;;;;;;;;0.40;0.40;;;;;5.90;75.32;100551.47;5120079;28;9574;-59
2023/05/24 03:23:06;;;;;;;;;0.00;0.00;;;;;5.89;75.33;100559.47;5119748;28;8917;-60
2023/05/24 03:25:33;;;;;;;;;0.60;0.60;;;;;5.86;75.46;100551.72;5119450;28;8824;-58
2023/05/24 03:28:01;;;;;;;;;0.00;0.00;;;;;5.84;75.37;100550.94;5119284;28;8847;-58
2023/05/24 03:30:29;;;;;;;;;1.80;1.40;;;;;5.83;75.83;100546.56;5119111;28;8957;-61
2023/05/24 03:32:57;;;;;;;;;1.00;1.00;;;;;5.80;75.87;100547.59;5119376;28;8954;-60
2023/05/24 03:35:25;;;;;;;;;1.00;1.00;;;;;5.79;75.73;100552.91;5119278;28;8836;-60
2023/05/24 03:37:53;;;;;;;;;1.00;0.60;;;;;5.77;75.42;100547.69;5119384;28;8811;-60
2023/05/24 03:40:20;;;;;;;;;1.00;0.00;;;;;5.77;75.98;100552.16;5119163;28;8950;-60
2023/05/24 03:42:48;;;;;;;;;0.80;0.80;;;;;5.75;75.82;100544.28;5119332;28;8962;-61
2023/05/24 03:45:16;;;;;;;;;0.00;0.00;;;;;5.76;76.09;100561.00;5119320;28;8828;-60
2023/05/24 03:48:01;;;;;;;;;3.20;1.40;;;;;5.76;75.26;100566.28;5118986;28;8855;-60
2023/05/24 03:50:28;;;;;;;;;0.20;0.20;;;;;5.77;75.93;100565.34;5119125;28;8840;-61
2023/05/24 03:52:56;;;;;;;;;0.00;0.00;;;;;5.78;75.76;100569.72;5119499;28;8800;-61
2023/05/24 03:55:24;;;;;;;;;1.00;1.00;;;;;5.79;75.59;100568.78;5119204;28;8853;-60
2023/05/24 03:57:52;;;;;;;;;0.00;0.00;;;;;5.81;75.39;100573.09;5118708;28;8824;-60
2023/05/24 04:00:20;;;;;;;;;1.00;1.00;;;;;5.83;75.47;100575.63;5118350;28;8823;-59
2023/05/24 04:02:47;;;;;;;;;1.00;1.00;;;;;5.83;75.62;100575.63;5118721;28;9512;-61
2023/05/24 04:05:16;;;;;;;;;0.00;0.00;;;;;5.87;75.39;100574.56;5119075;28;9467;-60
2023/05/24 04:07:45;;;;;;;;;1.00;1.00;;;;;5.89;75.19;100576.19;5118084;28;8854;-61
2023/05/24 04:10:12;;;;;;;;;1.00;0.00;;;;;5.93;74.97;100576.91;5118328;28;9610;-60
2023/05/24 04:12:40;;;;;;;;;1.00;1.00;;;;;5.97;74.97;100581.06;5118572;28;8847;-61
2023/05/24 04:15:08;;;;;;;;;1.00;1.00;;;;;6.01;74.92;100580.00;5118348;28;8827;-60
2023/05/24 04:17:37;;;;;;;;;0.00;0.00;;;;;6.05;74.66;100592.13;5118867;28;8830;-61
2023/05/24 04:20:05;;;;;;;;;1.80;1.80;;;;;6.09;75.03;100583.97;5118427;28;8839;-61
2023/05/24 04:22:34;;;;;;;;;1.00;1.00;;;;;6.13;74.93;100588.16;5117556;28;8850;-60
2023/05/24 04:25:02;;;;;;;;;1.00;1.00;;;;;6.18;74.72;100596.72;5118054;28;8901;-61
2023/05/24 04:27:30;;;;;;;;;1.40;1.40;;;;;6.24;74.39;100590.25;5117967;28;8838;-60
2023/05/24 04:29:58;;;;;;;;;1.00;1.00;;;;;6.34;74.58;100592.34;5118233;28;8845;-62
2023/05/24 04:32:29;;;;;;;;;0.80;0.80;;;;;6.48;74.02;100596.91;5117918;28;8848;-61
2023/05/24 04:34:56;;;;;;;;;0.20;0.20;;;;;6.63;73.78;100590.81;5118389;28;9470;-60
2023/05/24 04:37:24;;;;;;;;;1.00;1.00;;;;;6.78;73.37;100590.84;5117854;28;8812;-61
2023/05/24 04:39:52;;;;;;;;;1.80;1.00;;;;;6.91;73.71;100597.16;5118000;28;8966;-61
2023/05/24 04:42:21;;;;;;;;;1.00;1.00;;;;;7.04;73.29;100598.22;5117794;28;8843;-60
2023/05/24 04:44:49;;;;;;;;;4.20;2.80;;;;;7.15;72.45;100597.63;5117730;28;8957;-60
2023/05/24 04:47:17;;;;;;;;;0.00;0.00;;;;;7.24;73.17;100600.63;5117152;28;8966;-60
2023/05/24 04:49:44;;;;;;;;;1.80;1.80;;;;;7.36;72.84;100599.09;5117805;28;8942;-61
2023/05/24 04:52:12;;;;;;;;;3.20;3.20;;;;;7.46;72.62;100601.16;5117628;28;8850;-60
2023/05/24 04:54:40;;;;;;;;;3.60;2.20;;;;;7.57;72.06;100609.31;5117359;28;8847;-59
2023/05/24 04:57:08;;;;;;;;;3.00;1.00;;;;;7.68;71.96;100598.13;5117535;28;8958;-58
2023/05/24 04:59:35;;;;;;;;;3.00;3.00;;;;;7.78;72.04;100603.69;5117177;28;8831;-58
2023/05/24 05:02:03;;;;;;;;;0.40;0.40;;;;;7.88;71.56;100588.94;5117397;28;8847;-58
2023/05/24 05:04:31;;;;;;;;;0.33;0.33;;;;;7.99;71.41;100593.63;5117007;28;8848;-60
2023/05/24 05:06:59;;;;;;;;;1.00;1.00;;;;;8.08;71.63;100606.31;5116885;28;8836;-58
2023/05/24 05:09:27;;;;;;;;;1.00;1.00;;;;;8.20;71.22;100606.47;5116753;28;8820;-58
2023/05/24 05:11:54;;;;;;;;;0.00;0.00;;;;;8.37;71.08;100595.72;5116431;28;8854;-57
2023/05/24 05:14:22;;;;;;;;;4.00;3.75;;;;;8.50;70.86;100599.34;5116149;28;8844;-57
2023/05/24 05:16:50;;;;;;;;;2.50;1.00;;;;;8.64;70.74;100590.53;5116769;28;8843;-59
2023/05/24 05:19:18;;;;;;;;;3.25;3.25;;;;;8.80;70.32;100586.84;5116815;28;8824;-57
2023/05/24 05:21:46;;;;;;;;;4.00;3.00;;;;;8.94;70.01;100585.97;5116067;28;8820;-57
2023/05/24 05:24:14;;;;;;;;;4.50;3.25;;;;;9.03;70.11;100582.75;5115460;28;8858;-57
2023/05/24 05:26:42;;;;;;;;;4.00;4.00;;;;;9.09;70.05;100572.59;5115673;28;8839;-58
2023/05/24 05:29:09;;;;;;;;;5.00;4.50;;;;;9.16;69.72;100573.91;5115551;28;8962;-57
2023/05/24 05:31:38;;;;;;;;;6.75;6.50;;;;;9.22;70.03;100573.53;5114480;28;8840;-57
2023/05/24 05:34:08;;;;;;;;;2.00;2.00;;;;;9.30;69.83;100576.53;5114304;28;8836;-58
2023/05/24 05:36:39;;;;;;;;;6.25;4.00;;;;;9.41;69.65;100576.69;5114501;28;8859;-58
2023/05/24 05:39:08;;;;;;;;;3.50;2.25;;;;;9.51;69.87;100574.28;5115028;28;8835;-58
2023/05/24 05:41:36;;;;;;;;;5.00;5.00;;;;;9.61;69.45;100581.56;5114825;28;8835;-58
2023/05/24 05:44:05;;;;;;;;;3.00;3.00;;;;;9.72;69.31;100581.69;5114104;28;8881;-58
2023/05/24 05:46:33;;;;;;;;;3.25;3.00;;;;;9.89;69.14;100575.28;5112690;28;8843;-58
2023/05/24 05:49:01;;;;;;;;;4.00;3.50;;;;;10.08;69.21;100563.31;5113247;28;8850;-59
2023/05/24 05:51:29;;;;;;;;;3.50;3.50;;;;;10.25;68.18;100555.03;5112787;28;8929;-59
2023/05/24 05:53:56;;;;;;;;;4.50;3.25;;;;;10.34;68.52;100567.75;5113404;28;9596;-59
2023/05/24 05:56:26;;;;;;;;;3.25;3.25;;;;;10.37;68.16;100569.31;5113876;28;8862;-60
2023/05/24 05:58:54;;;;;;;;;5.25;3.00;;;;;10.42;68.32;100572.53;5113641;28;8920;-59
2023/05/24 06:01:24;;;;;;;;;3.00;3.00;;;;;10.47;67.84;100565.91;5113864;28;8950;-59
2023/05/24 06:03:51;;;;;;;;;3.50;2.00;;;;;10.55;68.40;100570.72;5112271;28;8865;-60
2023/05/24 06:06:19;;;;;;;;;4.00;4.00;;;;;10.64;67.92;100570.06;5112351;28;8843;-59
2023/05/24 06:08:49;;;;;;;;;5.00;3.00;;;;;10.72;68.05;100563.25;5111879;28;8831;-59
2023/05/24 06:11:17;;;;;;;;;5.50;3.25;;;;;10.81;67.92;100559.94;5111735;28;8832;-59
2023/05/24 06:13:44;;;;;;;;;3.50;3.25;;;;;10.87;67.42;100571.97;5112402;28;8863;-60
2023/05/24 06:16:13;;;;;;;;;4.75;1.00;;;;;10.92;67.72;100577.84;5111757;28;8906;-59
2023/05/24 06:18:41;;;;;;;;;3.50;3.00;;;;;11.01;68.12;100574.53;5112902;28;8933;-58
2023/05/24 06:21:24;;;;;;;;;3.00;3.00;;;;;11.05;67.45;100574.19;5112988;28;8896;-59
2023/05/24 06:23:51;;;;;;;;;3.00;3.00;;;;;11.13;67.83;100576.28;5113390;28;8835;-59
2023/05/24 06:26:20;;;;;;;;;6.00;4.00;;;;;11.20;67.59;100580.22;5113293;28;8819;-59
2023/05/24 06:28:48;;;;;;;;;4.00;4.00;;;;;11.21;67.41;100580.13;5112326;28;8912;-59
2023/05/24 06:31:17;;;;;;;;;3.00;3.00;;;;;11.24;67.47;100584.38;5111320;28;8975;-59
2023/05/24 06:33:44;;;;;;;;;3.50;3.00;;;;;11.28;67.98;100592.03;5112363;28;8839;-58
2023/05/24 06:36:28;;;;;;;;;4.00;3.00;;;;;11.38;67.60;100579.75;5112104;28;8823;-59
2023/05/24 06:38:56;;;;;;;;;2.50;1.00;;;;;11.52;67.33;100578.75;5111963;28;8828;-59
2023/05/24 06:41:25;;;;;;;;;4.00;3.25;;;;;11.59;67.22;100583.53;5112132;28;8966;-59
2023/05/24 06:43:53;;;;;;;;;4.00;4.00;;;;;11.66;67.08;100581.25;5112710;28;8985;-59
2023/05/24 06:46:21;;;;;;;;;4.75;3.25;;;;;11.67;67.00;100581.16;5114112;28;8819;-59
2023/05/24 06:48:49;;;;;;;;;3.00;2.50;;;;;11.71;67.35;100582.66;5117276;28;8866;-59
2023/05/24 06:51:17;;;;;;;;;1.00;0.75;;;;;11.79;67.22;100582.94;5117368;28;8848;-60
2023/05/24 06:53:45;;;;;;;;;3.50;3.50;;;;;11.90;66.96;100590.16;5118334;28;8860;-60
2023/05/24 06:56:13;;;;;;;;;0.50;0.00;;;;;11.98;66.57;100585.09;5118218;28;9531;-58
2023/05/24 06:58:42;;;;;;;;;5.50;4.50;;;;;12.08;66.36;100582.44;5118344;28;8824;-59
2023/05/24 07:01:09;;;;;;;;;3.00;3.00;;;;;12.25;66.82;100581.16;5117332;28;8942;-59
2023/05/24 07:03:37;;;;;;;;;3.75;0.00;;;;;12.49;65.30;100579.28;5117541;28;9547;-59
2023/05/24 07:06:05;;;;;;;;;6.00;4.00;;;;;12.69;65.76;100576.75;5117779;28;9528;-59
2023/05/24 07:08:33;;;;;;;;;6.00;5.00;;;;;12.85;65.68;100566.56;5117659;28;8836;-59
2023/05/24 07:11:02;;;;;;;;;3.50;3.50;;;;;12.98;65.54;100574.53;5118247;28;8843;-59
2023/05/24 07:13:29;;;;;;;;;3.50;3.50;;;;;13.07;65.42;100573.78;5118449;28;8958;-60
2023/05/24 07:15:57;;;;;;;;;3.00;3.00;;;;;13.13;65.00;100578.66;5117857;28;8847;-59
2023/05/24 07:18:25;;;;;;;;;4.50;3.25;;;;;13.22;65.40;100583.25;5118114;28;8824;-59
2023/05/24 07:20:53;;;;;;;;;6.00;3.50;;;;;13.35;65.49;100578.63;5117402;28;8836;-61
2023/05/24 07:23:21;;;;;;;;;5.50;4.00;;;;;13.48;64.58;100582.84;5116980;28;8824;-60
2023/05/24 07:25:49;;;;;;;;;4.00;3.25;;;;;13.60;64.41;100584.50;5116251;28;8840;-60
2023/05/24 07:28:18;;;;;;;;;3.50;3.50;;;;;13.67;64.58;100585.72;5115556;28;8844;-59
2023/05/24 07:30:46;;;;;;;;;5.00;4.00;;;;;13.71;64.18;100591.66;5116412;28;9494;-60
2023/05/24 07:33:16;;;;;;;;;3.75;3.25;;;;;13.71;64.68;100588.97;5116257;28;8997;-59
2023/05/24 07:35:44;;;;;;;;;3.00;3.00;;;;;13.76;64.67;100594.81;5115235;28;9041;-59
2023/05/24 07:38:12;;;;;;;;;6.75;6.75;;;;;13.80;64.79;100586.41;5115647;28;8828;-59
2023/05/24 07:40:40;;;;;;;;;5.00;3.75;;;;;13.90;64.93;100589.19;5115852;28;8848;-59
2023/05/24 07:43:08;;;;;;;;;3.00;3.00;;;;;13.98;63.97;100574.16;5117256;28;8848;-60
2023/05/24 07:45:36;;;;;;;;;3.00;1.00;;;;;14.11;63.65;100579.38;5115908;28;8823;-61
2023/05/24 07:48:04;;;;;;;;;3.00;3.00;;;;;14.15;63.61;100575.44;5115264;28;8839;-60
2023/05/24 07:50:32;;;;;;;;;6.50;4.50;;;;;14.16;63.59;100587.84;5115592;28;8844;-60
2023/05/24 07:53:00;;;;;;;;;4.00;4.00;;;;;14.05;64.35;100588.75;5115226;28;8832;-61
2023/05/24 07:55:28;;;;;;;;;1.50;1.00;;;;;13.90;64.28;100597.22;5115175;28;8962;-59
2023/05/24 07:57:56;;;;;;;;;2.00;2.00;;;;;13.78;64.76;100588.38;5113974;28;8862;-61
2023/05/24 08:00:24;;;;;;;;;3.50;3.00;;;;;13.73;65.02;100595.91;5116139;28;8975;-62
2023/05/24 08:02:52;;;;;;;;;6.00;3.50;;;;;13.64;65.11;100596.69;5116900;28;8832;-62
2023/05/24 08:05:20;;;;;;;;;5.50;5.50;;;;;13.60;65.10;100599.72;5117498;28;8852;-58
2023/05/24 08:07:49;;;;;;;;;3.00;2.00;;;;;13.59;65.74;100587.34;5116643;28;8859;-61
2023/05/24 08:10:17;;;;;;;;;4.50;3.50;;;;;13.57;65.50;100594.63;5115769;28;8846;-62
2023/05/24 08:12:45;;;;;;;;;8.00;6.75;;;;;13.53;65.69;100587.81;5116099;28;9513;-60
2023/05/24 08:15:12;;;;;;;;;7.00;6.00;;;;;13.48;66.05;100595.38;5115955;28;8855;-60
2023/05/24 08:17:40;;;;;;;;;3.00;3.00;;;;;13.43;65.72;100593.06;5116467;28;8828;-61
2023/05/24 08:20:12;;;;;;;;;8.50;5.50;;;;;13.39;65.92;100596.13;5115802;28;8831;-62
2023/05/24 08:22:41;;;;;;;;;5.50;5.50;;;;;13.31;65.94;100601.22;5115633;28;8832;-60
2023/05/24 08:25:09;;;;;;;;;8.50;6.00;;;;;13.30;66.13;100592.34;5116256;28;8839;-62
2023/05/24 08:27:37;;;;;;;;;6.25;6.25;;;;;13.34;66.14;100598.31;5116229;28;8860;-60
2023/05/24 08:30:04;;;;;;;;;6.75;6.75;;;;;13.40;65.98;100596.00;5115803;28;8917;-60
2023/05/24 08:32:33;;;;;;;;;8.50;7.00;;;;;13.42;65.80;100598.53;5115478;28;8916;-62
2023/05/24 08:35:01;;;;;;;;;3.25;3.25;;;;;13.42;65.96;100603.88;5115793;28;8851;-62
2023/05/24 08:37:47;;;;;;;;;8.00;5.00;;;;;13.41;65.97;100602.19;5115313;28;8925;-62
2023/05/24 08:40:16;;;;;;;;;7.50;6.00;;;;;13.43;66.19;100608.28;5115566;28;8858;-60
2023/05/24 08:42:46;;;;;;;;;4.00;4.00;;;;;13.44;66.14;100609.97;5116194;28;8843;-60
2023/05/24 08:45:14;;;;;;;;;3.50;3.00;;;;;13.45;65.90;100614.34;5116044;28;8831;-61
2023/05/24 08:47:42;;;;;;;;;6.00;5.00;;;;;13.45;66.21;100611.69;5115314;28;8835;-61
2023/05/24 08:50:10;;;;;;;;;3.25;3.00;;;;;13.44;65.71;100615.34;5114353;28;8859;-60
2023/05/24 08:52:38;;;;;;;;;3.25;3.25;;;;;13.43;65.80;100609.13;5114632;28;8812;-62
2023/05/24 08:55:06;;;;;;;;;3.25;3.25;;;;;13.54;65.88;100608.25;5115108;28;8843;-62
2023/05/24 08:57:38;;;;;;;;;5.00;4.00;;;;;13.71;65.14;100600.56;5115225;28;8828;-62
2023/05/24 09:00:08;;;;;;;;;6.00;6.00;;;;;13.97;64.82;100601.91;5114934;28;8844;-59
2023/05/24 09:02:37;;;;;;;;;3.50;3.50;;;;;14.17;64.68;100592.22;5115459;28;8828;-60
2023/05/24 09:05:05;;;;;;;;;6.00;4.00;;;;;14.27;64.15;100591.34;5116231;28;8832;-61
2023/05/24 09:07:33;;;;;;;;;3.00;3.00;;;;;14.34;64.28;100597.91;5115680;28;8847;-60
2023/05/24 09:10:01;;;;;;;;;6.00;6.00;;;;;14.46;63.60;100598.69;5115462;28;8836;-60
2023/05/24 09:12:28;;;;;;;;;6.50;6.50;;;;;14.70;63.36;100596.56;5116510;28;9493;-60
2023/05/24 09:15:04;;;;;;;;;4.00;4.00;;;;;14.94;63.03;100589.13;5115804;28;8843;-60
2023/05/24 09:17:32;;;;;;;;;3.00;3.00;;;;;15.26;62.43;100579.06;5115844;28;9591;-60
2023/05/24 09:20:01;;;;;;;;;3.50;3.00;;;;;15.53;61.84;100573.94;5115737;28;8824;-60
2023/05/24 09:22:29;;;;;;;;;4.50;4.00;;;;;15.60;61.63;100570.59;5116227;28;8832;-60
2023/05/24 09:24:57;;;;;;;;;4.00;4.00;;;;;15.54;61.53;100578.34;5115593;28;8860;-61
2023/05/24 09:27:25;;;;;;;;;6.00;6.00;;;;;15.37;62.44;100579.84;5114836;28;8831;-59
2023/05/24 09:29:53;;;;;;;;;4.00;4.00;;;;;15.14;62.31;100585.50;5115400;28;8843;-61
2023/05/24 09:32:23;;;;;;;;;3.50;3.00;;;;;14.89;63.51;100583.28;5115561;28;8831;-60
2023/05/24 09:34:51;;;;;;;;;3.00;3.00;;;;;14.66;63.99;100587.13;5114150;28;8840;-59
2023/05/24 09:37:20;;;;;;;;;3.75;3.75;;;;;14.47;64.43;100595.00;5113730;28;8850;-60
2023/05/24 09:40:12;;;;;;;;;5.50;4.50;;;;;14.28;64.91;100597.56;5114330;28;8832;-60
2023/05/24 09:42:40;;;;;;;;;3.00;1.00;;;;;14.14;64.63;100589.81;5116553;28;8831;-60
2023/05/24 09:45:09;;;;;;;;;7.75;6.00;;;;;14.07;65.21;100591.28;5116374;28;8839;-60
2023/05/24 09:47:37;;;;;;;;;4.50;3.75;;;;;14.11;64.84;100600.78;5116693;28;8836;-60
2023/05/24 09:50:05;;;;;;;;;3.50;3.00;;;;;14.13;64.40;100593.47;5116565;28;8835;-60
2023/05/24 09:52:33;;;;;;;;;4.00;4.00;;;;;14.15;64.54;100602.22;5116419;28;9009;-60
2023/05/24 09:55:02;;;;;;;;;3.00;3.00;;;;;14.17;64.53;100587.72;5115418;28;8844;-60
2023/05/24 09:57:31;;;;;;;;;1.00;1.00;;;;;14.31;64.07;100591.94;5115275;28;9603;-59
2023/05/24 09:59:59;;;;;;;;;3.50;3.50;;;;;14.55;63.61;100592.53;5114906;28;8824;-60
2023/05/24 10:02:26;;;;;;;;;5.75;5.75;;;;;14.84;63.11;100580.16;5115049;28;8852;-60
2023/05/24 10:05:04;;;;;;;;;5.00;4.00;;;;;15.20;62.14;100582.28;5115189;28;9517;-59
2023/05/24 10:07:33;;;;;;;;;3.00;2.00;;;;;15.66;60.96;100570.03;5114207;28;8859;-60
2023/05/24 10:10:01;;;;;;;;;4.50;4.50;;;;;16.06;61.02;100576.16;5114244;28;8863;-59
2023/05/24 10:12:30;;;;;;;;;4.00;4.00;;;;;16.33;60.22;100573.59;5113432;28;8855;-60
2023/05/24 10:14:58;;;;;;;;;4.00;3.75;;;;;16.42;59.88;100573.59;5114014;28;8836;-60
2023/05/24 10:17:27;;;;;;;;;7.00;6.50;;;;;16.44;60.40;100579.69;5114580;28;8886;-60
2023/05/24 10:19:56;;;;;;;;;4.40;3.00;;;;;16.41;60.05;100581.81;5113748;28;8840;-60
2023/05/24 10:22:24;;;;;;;;;4.00;3.00;;;;;16.36;60.40;100581.38;5112866;28;8860;-60
2023/05/24 10:24:52;;;;;;;;;3.00;3.00;;;;;16.23;60.47;100576.28;5112723;28;8831;-60
2023/05/24 10:27:20;;;;;;;;;3.80;3.80;;;;;16.13;60.44;100590.72;5112822;28;8906;-60
2023/05/24 10:29:49;;;;;;;;;4.00;4.00;;;;;16.01;61.40;100601.75;5112751;28;8836;-60
2023/05/24 10:32:18;;;;;;;;;3.00;3.00;;;;;15.82;61.52;100590.97;5113018;28;8855;-59
2023/05/24 10:34:46;;;;;;;;;3.75;3.00;;;;;15.65;61.69;100594.34;5113207;28;9567;-60
2023/05/24 10:37:14;;;;;;;;;3.25;3.25;;;;;15.47;62.62;100602.19;5112147;28;8921;-62
2023/05/24 10:39:42;;;;;;;;;3.00;1.00;;;;;15.29;62.90;100597.56;5112769;28;8862;-60
2023/05/24 10:42:12;;;;;;;;;3.50;3.50;;;;;15.10;62.99;100602.88;5112758;28;9876;-60
2023/05/24 10:44:40;;;;;;;;;3.25;3.25;;;;;14.93;63.41;100607.03;5112569;28;8962;-60
2023/05/24 10:47:09;;;;;;;;;4.00;4.00;;;;;14.84;63.07;100601.59;5112638;28;8929;-59
2023/05/24 10:49:37;;;;;;;;;3.75;3.25;;;;;14.75;63.95;100602.41;5111163;28;8855;-59
2023/05/24 10:52:05;;;;;;;;;6.00;4.00;;;;;14.62;64.12;100601.75;5112652;28;8831;-62
2023/05/24 10:54:33;;;;;;;;;2.00;1.00;;;;;14.54;63.94;100598.88;5112273;28;8824;-60
2023/05/24 10:57:03;;;;;;;;;3.50;3.50;;;;;14.49;63.83;100601.13;5112794;28;8839;-61
2023/05/24 10:59:33;;;;;;;;;4.00;3.25;;;;;14.51;63.48;100596.47;5112985;28;8836;-59
2023/05/24 11:02:01;;;;;;;;;3.00;3.00;;;;;14.53;64.10;100592.69;5112901;28;9534;-59
2023/05/24 11:04:29;;;;;;;;;3.50;3.50;;;;;14.56;64.06;100583.53;5113572;28;9505;-61
2023/05/24 11:06:59;;;;;;;;;2.00;2.00;;;;;14.58;63.52;100581.56;5113241;28;8864;-59
2023/05/24 11:09:28;;;;;;;;;5.00;5.00;;;;;14.59;63.39;100585.94;5113376;28;8843;-61
2023/05/24 11:11:56;;;;;;;;;5.00;4.00;;;;;14.64;63.71;100586.41;5113014;28;8832;-61
2023/05/24 11:14:24;;;;;;;;;3.50;3.25;;;;;14.69;63.77;100586.84;5113432;28;8874;-59
2023/05/24 11:16:52;;;;;;;;;3.00;3.00;;;;;14.74;63.06;100590.84;5112833;28;8840;-59
2023/05/24 11:19:20;;;;;;;;;3.50;3.00;;;;;14.82;63.46;100591.03;5113002;28;8851;-61
2023/05/24 11:21:50;;;;;;;;;4.00;3.00;;;;;14.96;62.89;100585.28;5112807;28;8823;-59
2023/05/24 11:24:18;;;;;;;;;3.00;3.00;;;;;15.14;62.11;100585.50;5112943;28;8844;-60
2023/05/24 11:26:46;;;;;;;;;6.00;6.00;;;;;15.23;62.79;100582.00;5111978;28;9524;-60
2023/05/24 11:29:16;;;;;;;;;6.00;5.00;;;;;15.30;61.94;100585.84;5111455;28;8855;-61
2023/05/24 11:31:44;;;;;;;;;4.00;3.00;;;;;15.35;61.87;100586.34;5111931;28;8839;-60
2023/05/24 11:34:12;;;;;;;;;5.50;4.50;;;;;15.36;61.83;100579.97;5115344;28;8860;-59
2023/05/24 11:36:40;;;;;;;;;6.75;6.75;;;;;15.38;62.23;100588.72;5115270;28;8865;-60
2023/05/24 11:39:08;;;;;;;;;4.00;3.00;;;;;15.35;61.89;100589.03;5114648;28;8836;-59
2023/05/24 11:41:37;;;;;;;;;3.00;3.00;;;;;15.33;62.07;100582.94;5114451;28;9591;-60